createdAt,value
2023-05-11T00:00:03.314Z,26.35
2023-05-11T00:02:32.718Z,29.20
2023-05-11T00:05:00.041Z,27.48
2023-05-11T00:07:27.295Z,26.40
2023-05-11T00:09:54.561Z,27.25
2023-05-11T00:12:21.802Z,26.60
2023-05-11T00:14:49.046Z,24.17
2023-05-11T00:17:16.316Z,26.50
2023-05-11T00:19:43.621Z,26.50
2023-05-11T00:22:10.802Z,28.35
2023-05-11T00:24:39.212Z,24.30
2023-05-11T00:27:06.450Z,27.35
2023-05-11T00:29:33.761Z,29.48
2023-05-11T00:32:01.198Z,28.35
2023-05-11T00:34:28.503Z,28.48
2023-05-11T00:36:56.118Z,27.65
2023-05-11T00:39:23.640Z,31.65
2023-05-11T00:41:50.991Z,34.75
2023-05-11T00:44:18.176Z,36.47
2023-05-11T00:46:45.436Z,39.85
2023-05-11T00:49:17.046Z,39.10
2023-05-11T00:51:44.579Z,37.03
2023-05-11T00:54:15.396Z,39.70
2023-05-11T00:56:42.984Z,42.72
2023-05-11T00:59:10.535Z,39.13
2023-05-11T01:01:39.469Z,41.20
2023-05-11T01:04:07.407Z,39.42
2023-05-11T01:06:42.592Z,43.55
2023-05-11T01:09:13.271Z,45.05
2023-05-11T01:11:40.865Z,42.33
2023-05-11T01:14:12.823Z,48.58
2023-05-11T01:16:42.380Z,42.67
2023-05-11T01:19:24.813Z,44.75
2023-05-11T01:21:52.686Z,42.17
2023-05-11T01:24:27.161Z,43.88
2023-05-11T01:26:55.621Z,36.53
2023-05-11T01:29:43.923Z,36.92
2023-05-11T01:32:16.691Z,40.40
2023-05-11T01:34:44.595Z,41.13
2023-05-11T01:37:26.707Z,39.40
2023-05-11T01:39:55.786Z,42.35
2023-05-11T01:44:51.485Z,45.67
2023-05-11T01:47:19.002Z,44.53
2023-05-11T01:49:46.286Z,45.85
2023-05-11T01:52:15.060Z,47.90
2023-05-11T01:54:44.686Z,48.13
2023-05-11T01:57:13.646Z,43.72
2023-05-11T01:59:41.113Z,45.60
2023-05-11T02:02:09.300Z,47.50
2023-05-11T02:04:38.202Z,46.85
2023-05-11T02:07:06.251Z,61.45
2023-05-11T02:09:34.243Z,49.53
2023-05-11T02:12:02.613Z,50.73
2023-05-11T02:14:34.228Z,51.17
2023-05-11T02:17:02.882Z,46.58
2023-05-11T02:19:31.600Z,54.63
2023-05-11T02:21:58.955Z,49.75
2023-05-11T02:24:28.422Z,50.50
2023-05-11T02:26:55.828Z,56.40
2023-05-11T02:29:23.703Z,55.25
2023-05-11T02:31:53.565Z,57.55
2023-05-11T02:34:24.260Z,55.67
2023-05-11T02:36:53.996Z,58.00
2023-05-11T02:39:23.566Z,54.53
2023-05-11T02:42:08.627Z,60.97
2023-05-11T02:44:37.278Z,56.15
2023-05-11T02:47:05.570Z,58.60
2023-05-11T02:49:36.989Z,57.22
2023-05-11T02:52:07.282Z,59.38
2023-05-11T02:54:42.103Z,61.83
2023-05-11T02:57:09.428Z,56.90
2023-05-11T02:59:37.774Z,61.03
2023-05-11T03:02:05.714Z,60.53
2023-05-11T03:04:34.284Z,53.25
2023-05-11T03:07:01.556Z,64.22
2023-05-11T03:09:28.798Z,54.67
2023-05-11T03:11:56.336Z,59.40
2023-05-11T03:14:23.972Z,57.47
2023-05-11T03:16:51.808Z,65.65
2023-05-11T03:19:19.366Z,69.45
2023-05-11T03:21:47.541Z,65.20
2023-05-11T03:24:14.793Z,66.10
2023-05-11T03:26:44.330Z,71.05
2023-05-11T03:29:12.501Z,72.82
2023-05-11T03:31:39.836Z,58.17
2023-05-11T03:34:07.197Z,65.90
2023-05-11T03:36:39.150Z,67.75
2023-05-11T03:39:07.284Z,64.57
2023-05-11T03:41:34.932Z,66.13
2023-05-11T03:44:03.933Z,67.93
2023-05-11T03:46:35.739Z,66.38
2023-05-11T03:49:05.523Z,65.32
2023-05-11T03:51:33.455Z,67.60
2023-05-11T03:54:01.036Z,69.95
2023-05-11T03:56:28.472Z,68.32
2023-05-11T03:58:55.735Z,64.43
2023-05-11T04:01:23.060Z,70.13
2023-05-11T04:03:51.139Z,73.28
2023-05-11T04:06:18.809Z,69.95
2023-05-11T04:08:49.613Z,77.28
2023-05-11T04:11:17.004Z,65.65
2023-05-11T04:13:44.268Z,66.20
2023-05-11T04:16:11.638Z,71.55
2023-05-11T04:18:38.977Z,76.10
2023-05-11T04:21:06.345Z,72.82
2023-05-11T04:23:33.718Z,73.97
2023-05-11T04:26:00.989Z,68.28
2023-05-11T04:28:28.236Z,79.68
2023-05-11T04:30:56.430Z,73.38
2023-05-11T04:33:24.322Z,77.10
2023-05-11T04:35:55.379Z,70.53
2023-05-11T04:38:24.022Z,70.57
2023-05-11T04:40:51.360Z,62.38
2023-05-11T04:43:19.994Z,64.75
2023-05-11T04:45:51.090Z,63.10
2023-05-11T04:48:26.214Z,57.70
2023-05-11T04:50:57.201Z,63.78
2023-05-11T04:53:29.162Z,69.50
2023-05-11T04:55:57.376Z,62.78
2023-05-11T04:58:24.713Z,68.35
2023-05-11T05:00:52.025Z,64.10
2023-05-11T05:03:19.847Z,63.88
2023-05-11T05:05:47.109Z,66.07
2023-05-11T05:08:14.487Z,69.32
2023-05-11T05:10:41.713Z,68.78
2023-05-11T05:13:08.984Z,67.68
2023-05-11T05:15:36.295Z,66.10
2023-05-11T05:18:03.687Z,63.67
2023-05-11T05:20:31.888Z,64.53
2023-05-11T05:22:59.109Z,64.13
2023-05-11T05:25:26.383Z,60.08
2023-05-11T05:27:53.798Z,68.38
2023-05-11T05:30:21.484Z,62.33
2023-05-11T05:32:49.351Z,67.95
2023-05-11T05:35:16.644Z,66.32
2023-05-11T05:37:44.412Z,61.63
2023-05-11T05:40:11.853Z,62.72
2023-05-11T05:42:45.883Z,67.28
2023-05-11T05:45:16.875Z,71.40
2023-05-11T05:47:44.839Z,64.07
2023-05-11T05:50:12.312Z,69.50
2023-05-11T05:52:41.872Z,66.25
2023-05-11T05:55:09.719Z,68.70
2023-05-11T05:57:37.346Z,59.72
2023-05-11T06:00:05.375Z,65.75
2023-05-11T06:02:40.087Z,65.53
2023-05-11T06:05:09.763Z,58.90
2023-05-11T06:07:38.466Z,73.88
2023-05-11T06:10:06.499Z,64.05
2023-05-11T06:12:33.779Z,55.70
2023-05-11T06:15:02.030Z,58.75
2023-05-11T06:17:31.556Z,59.30
2023-05-11T06:19:58.775Z,58.22
2023-05-11T06:22:29.154Z,59.30
2023-05-11T06:24:57.484Z,56.35
2023-05-11T06:27:26.375Z,53.20
2023-05-11T06:29:56.405Z,55.40
2023-05-11T06:32:25.898Z,49.03
2023-05-11T06:34:53.202Z,54.30
2023-05-11T06:37:21.893Z,53.03
2023-05-11T06:39:51.162Z,46.60
2023-05-11T06:42:18.754Z,53.10
2023-05-11T06:44:46.036Z,48.50
2023-05-11T06:47:13.386Z,46.45
2023-05-11T06:49:42.678Z,47.80
2023-05-11T06:52:10.200Z,48.40
2023-05-11T06:54:37.489Z,56.55
2023-05-11T06:57:04.805Z,57.00
2023-05-11T06:59:32.548Z,49.63
2023-05-11T07:01:59.907Z,55.53
2023-05-11T07:04:27.245Z,49.38
2023-05-11T07:06:55.207Z,48.75
2023-05-11T07:09:22.953Z,46.90
2023-05-11T07:11:52.203Z,50.38
2023-05-11T07:14:19.777Z,54.83
2023-05-11T07:16:47.113Z,49.78
2023-05-11T07:19:14.746Z,52.83
2023-05-11T07:21:42.059Z,49.67
2023-05-11T07:24:09.268Z,54.38
2023-05-11T07:26:36.566Z,48.78
2023-05-11T07:29:03.935Z,51.55
2023-05-11T07:31:32.046Z,50.40
2023-05-11T07:33:59.338Z,45.55
2023-05-11T07:36:26.527Z,46.13
2023-05-11T07:38:53.797Z,50.47
2023-05-11T07:41:24.310Z,48.55
2023-05-11T07:43:51.632Z,38.10
2023-05-11T07:46:18.911Z,45.38
2023-05-11T07:48:46.985Z,42.30
2023-05-11T07:51:14.691Z,37.65
2023-05-11T07:53:41.998Z,40.53
2023-05-11T07:56:10.578Z,44.08
2023-05-11T07:58:37.822Z,36.47
2023-05-11T08:01:05.190Z,32.55
2023-05-11T08:03:32.415Z,29.33
2023-05-11T08:05:59.681Z,33.55
2023-05-11T08:08:26.998Z,34.25
2023-05-11T08:10:54.219Z,31.55
2023-05-11T08:13:21.487Z,28.83
2023-05-11T08:15:48.929Z,34.25
2023-05-11T08:18:16.525Z,32.15
2023-05-11T08:20:43.823Z,30.55
2023-05-11T08:23:17.034Z,31.52
2023-05-11T08:25:51.619Z,34.95
2023-05-11T08:28:19.293Z,33.42
2023-05-11T08:30:46.568Z,32.90
2023-05-11T08:33:33.927Z,32.22
2023-05-11T08:36:01.650Z,31.85
2023-05-11T08:38:28.899Z,32.75
2023-05-11T08:40:56.260Z,29.08
2023-05-11T08:43:23.962Z,32.95
2023-05-11T08:45:54.895Z,31.40
2023-05-11T08:48:23.164Z,28.83
2023-05-11T08:50:50.435Z,27.33
2023-05-11T08:53:17.680Z,27.52
2023-05-11T08:55:47.571Z,31.40
2023-05-11T08:58:19.380Z,27.00
2023-05-11T09:00:47.164Z,27.85
2023-05-11T09:03:14.935Z,28.98
2023-05-11T09:05:43.877Z,25.02
2023-05-11T09:08:12.529Z,30.42
2023-05-11T09:10:39.981Z,30.75
2023-05-11T09:13:07.300Z,27.70
2023-05-11T09:15:38.100Z,26.08
2023-05-11T09:18:06.104Z,26.02
2023-05-11T09:20:34.280Z,27.75
2023-05-11T09:23:01.771Z,32.05
2023-05-11T09:25:32.355Z,26.42
2023-05-11T09:28:00.703Z,27.92
2023-05-11T09:30:28.265Z,27.35
2023-05-11T09:32:57.114Z,31.05
2023-05-11T09:35:24.462Z,28.70
2023-05-11T09:38:02.519Z,24.95
2023-05-11T09:40:34.155Z,23.35
2023-05-11T09:43:02.566Z,18.63
2023-05-11T09:45:40.136Z,12.07
2023-05-11T09:48:08.500Z,13.40
2023-05-11T09:50:36.722Z,7.90
2023-05-11T09:53:04.079Z,9.88
2023-05-11T09:55:31.445Z,7.38
2023-05-11T09:57:59.900Z,9.93
2023-05-11T10:00:27.297Z,7.90
2023-05-11T10:03:04.912Z,7.18
2023-05-11T10:05:33.621Z,9.15
2023-05-11T10:08:02.245Z,9.38
2023-05-11T10:10:30.238Z,9.00
2023-05-11T10:12:58.981Z,12.32
2023-05-11T10:15:31.944Z,11.15
2023-05-11T10:18:01.307Z,16.10
2023-05-11T10:20:29.038Z,14.63
2023-05-11T10:22:56.493Z,16.80
2023-05-11T10:25:24.225Z,17.17
2023-05-11T10:27:52.200Z,17.17
2023-05-11T10:30:19.841Z,15.82
2023-05-11T10:32:47.421Z,14.38
2023-05-11T10:35:15.501Z,13.70
2023-05-11T10:37:43.400Z,14.38
2023-05-11T10:40:11.468Z,14.55
2023-05-11T10:42:51.745Z,12.27
2023-05-11T10:45:21.955Z,12.07
2023-05-11T10:48:08.092Z,14.73
2023-05-11T10:50:35.280Z,11.70
2023-05-11T10:53:02.556Z,11.65
2023-05-11T10:55:47.106Z,10.77
2023-05-11T10:58:16.773Z,9.82
2023-05-11T11:01:03.977Z,11.57
2023-05-11T11:03:31.400Z,15.10
2023-05-11T11:06:00.882Z,14.13
2023-05-11T11:08:28.741Z,15.98
2023-05-11T11:10:56.356Z,28.15
2023-05-11T11:13:24.503Z,16.55
2023-05-11T11:15:55.082Z,18.50
2023-05-11T11:18:29.312Z,20.33
2023-05-11T11:20:57.399Z,18.15
2023-05-11T11:23:43.297Z,26.98
2023-05-11T11:26:11.472Z,21.00
2023-05-11T11:29:02.644Z,21.02
2023-05-11T11:31:31.738Z,17.40
2023-05-11T11:36:46.652Z,15.48
2023-05-11T11:39:14.246Z,15.43
2023-05-11T11:41:41.631Z,12.63
2023-05-11T11:44:21.733Z,11.52
2023-05-11T11:47:08.942Z,10.27
2023-05-11T11:49:36.475Z,14.77
2023-05-11T11:52:04.347Z,12.23
2023-05-11T11:54:51.858Z,7.80
2023-05-11T11:57:32.558Z,6.50
2023-05-11T12:00:00.481Z,8.77
2023-05-11T12:02:28.552Z,8.05
2023-05-11T12:05:01.155Z,7.97
2023-05-11T12:07:32.845Z,7.22
2023-05-11T12:10:03.923Z,6.25
2023-05-11T12:12:31.652Z,6.80
2023-05-11T12:14:59.954Z,7.65
2023-05-11T12:17:29.497Z,10.27
2023-05-11T12:20:11.959Z,11.27
2023-05-11T12:22:39.327Z,11.40
2023-05-11T12:25:07.122Z,9.75
2023-05-11T12:27:34.579Z,10.48
2023-05-11T12:30:01.923Z,11.43
2023-05-11T12:32:29.724Z,15.23
2023-05-11T12:35:04.664Z,11.43
2023-05-11T12:37:32.566Z,11.52
2023-05-11T12:40:00.522Z,11.77
2023-05-11T12:42:28.214Z,12.00
2023-05-11T12:44:56.127Z,12.80
2023-05-11T12:47:23.747Z,8.88
2023-05-11T12:49:51.154Z,10.38
2023-05-11T12:52:18.491Z,11.32
2023-05-11T12:54:51.834Z,10.55
2023-05-11T12:57:28.945Z,10.38
2023-05-11T13:00:15.596Z,9.15
2023-05-11T13:02:46.035Z,9.25
2023-05-11T13:05:14.676Z,7.93
2023-05-11T13:07:43.958Z,9.07
2023-05-11T13:10:12.341Z,10.02
2023-05-11T13:12:51.922Z,10.15
2023-05-11T13:15:19.998Z,9.95
2023-05-11T13:17:47.411Z,9.27
2023-05-11T13:20:18.738Z,11.10
2023-05-11T13:22:46.658Z,11.25
2023-05-11T13:25:15.907Z,11.00
2023-05-11T13:27:43.352Z,9.65
2023-05-11T13:30:11.455Z,10.18
2023-05-11T13:32:39.266Z,9.67
2023-05-11T13:35:07.211Z,9.10
2023-05-11T13:37:34.471Z,10.85
2023-05-11T13:40:02.098Z,12.52
2023-05-11T13:42:32.542Z,11.98
2023-05-11T13:45:00.972Z,9.02
2023-05-11T13:47:28.282Z,11.48
2023-05-11T13:49:55.661Z,8.70
2023-05-11T13:52:23.008Z,9.75
2023-05-11T13:54:50.377Z,12.82
2023-05-11T13:57:17.896Z,10.40
2023-05-11T13:59:45.169Z,8.45
2023-05-11T14:02:12.751Z,6.43
2023-05-11T14:04:40.472Z,6.75
2023-05-11T14:07:08.005Z,6.22
2023-05-11T14:09:37.009Z,5.95
2023-05-11T14:14:31.388Z,6.55
2023-05-11T14:16:58.795Z,7.30
2023-05-11T14:19:26.210Z,8.00
2023-05-11T14:21:53.628Z,6.60
2023-05-11T14:24:21.140Z,7.03
2023-05-11T14:26:48.401Z,7.00
2023-05-11T14:29:15.625Z,9.20
2023-05-11T14:31:43.444Z,6.28
2023-05-11T14:34:10.960Z,7.57
2023-05-11T14:36:38.232Z,13.73
2023-05-11T14:39:05.722Z,13.77
2023-05-11T14:41:32.980Z,13.30
2023-05-11T14:44:00.272Z,15.25
2023-05-11T14:46:27.688Z,13.77
2023-05-11T14:48:55.150Z,13.15
2023-05-11T14:51:22.485Z,13.57
2023-05-11T14:53:49.768Z,13.25
2023-05-11T14:56:17.262Z,13.15
2023-05-11T14:58:44.545Z,10.98
2023-05-11T15:01:11.798Z,11.25
2023-05-11T15:03:39.164Z,10.30
2023-05-11T15:06:06.671Z,11.63
2023-05-11T15:08:33.999Z,11.40
2023-05-11T15:11:01.300Z,10.30
2023-05-11T15:13:28.598Z,10.10
2023-05-11T15:15:56.248Z,8.50
2023-05-11T15:18:23.567Z,11.00
2023-05-11T15:20:50.780Z,7.15
2023-05-11T15:23:18.053Z,8.73
2023-05-11T15:25:45.655Z,8.75
2023-05-11T15:28:13.273Z,8.65
2023-05-11T15:30:42.160Z,5.85
2023-05-11T15:33:10.629Z,8.50
2023-05-11T15:35:38.279Z,4.75
2023-05-11T15:38:06.226Z,6.35
2023-05-11T15:40:33.707Z,5.88
2023-05-11T15:43:00.973Z,6.40
2023-05-11T15:45:29.498Z,5.50
2023-05-11T15:50:26.256Z,6.22
2023-05-11T15:52:53.497Z,6.32
2023-05-11T15:55:21.070Z,7.68
2023-05-11T15:57:48.297Z,6.75
2023-05-11T16:00:16.593Z,5.82
2023-05-11T16:02:45.736Z,7.63
2023-05-11T16:07:40.803Z,6.03
2023-05-11T16:10:08.367Z,5.65
2023-05-11T16:12:35.606Z,6.50
2023-05-11T16:15:02.867Z,7.45
2023-05-11T16:17:30.264Z,7.88
2023-05-11T16:19:59.368Z,6.10
2023-05-11T16:24:53.813Z,6.10
2023-05-11T16:27:21.420Z,6.28
2023-05-11T16:29:48.843Z,8.48
2023-05-11T16:32:16.131Z,7.95
2023-05-11T16:34:43.366Z,8.65
2023-05-11T16:37:10.650Z,8.68
2023-05-11T16:39:37.900Z,9.55
2023-05-11T16:42:05.283Z,9.48
2023-05-11T16:44:32.556Z,10.30
2023-05-11T16:47:00.507Z,9.20
2023-05-11T16:49:28.271Z,7.63
2023-05-11T16:51:56.107Z,10.32
2023-05-11T16:54:23.366Z,11.70
2023-05-11T16:56:50.625Z,10.20
2023-05-11T16:59:17.905Z,8.32
2023-05-11T17:01:46.140Z,8.63
2023-05-11T17:04:13.884Z,9.23
2023-05-11T17:06:41.696Z,9.02
2023-05-11T17:09:08.998Z,13.25
2023-05-11T17:11:36.653Z,9.80
2023-05-11T17:14:04.086Z,10.52
2023-05-11T17:16:31.441Z,8.95
2023-05-11T17:18:59.241Z,8.10
2023-05-11T17:21:26.661Z,8.07
2023-05-11T17:23:53.889Z,5.38
2023-05-11T17:26:25.072Z,7.85
2023-05-11T17:28:55.905Z,7.10
2023-05-11T17:31:23.325Z,9.32
2023-05-11T17:33:51.035Z,8.65
2023-05-11T17:36:18.750Z,9.07
2023-05-11T17:38:46.015Z,49.13
2023-05-11T17:41:14.520Z,15.45
2023-05-11T17:43:41.902Z,12.30
2023-05-11T17:46:09.323Z,30.52
2023-05-11T17:48:36.943Z,31.95
2023-05-11T17:51:04.192Z,31.02
2023-05-11T17:53:32.110Z,45.72
2023-05-11T17:55:59.961Z,17.80
2023-05-11T17:58:27.267Z,12.13
2023-05-11T18:00:54.663Z,14.02
2023-05-11T18:03:22.107Z,10.88
2023-05-11T18:05:49.606Z,10.95
2023-05-11T18:08:17.037Z,9.50
2023-05-11T18:10:44.458Z,13.00
2023-05-11T18:13:11.862Z,14.07
2023-05-11T18:15:39.299Z,13.10
2023-05-11T18:18:09.808Z,14.32
2023-05-11T18:20:39.938Z,13.23
2023-05-11T18:23:11.473Z,14.73
2023-05-11T18:25:39.655Z,15.93
2023-05-11T18:31:01.644Z,18.05
2023-05-11T18:33:33.163Z,17.38
2023-05-11T18:36:03.989Z,17.85
2023-05-11T18:38:35.344Z,16.40
2023-05-11T18:41:08.767Z,20.50
2023-05-11T18:43:37.988Z,19.10
2023-05-11T18:46:10.036Z,19.52
2023-05-11T18:48:40.217Z,18.25
2023-05-11T18:51:08.942Z,19.13
2023-05-11T18:53:37.401Z,20.55
2023-05-11T18:58:40.087Z,17.23
2023-05-11T19:01:09.340Z,16.20
2023-05-11T19:03:39.077Z,16.38
2023-05-11T19:06:08.326Z,16.92
2023-05-11T19:08:37.462Z,17.25
2023-05-11T19:14:29.850Z,11.88
2023-05-11T19:17:00.837Z,14.82
2023-05-11T19:19:29.473Z,12.68
2023-05-11T19:21:59.858Z,11.52
2023-05-11T19:24:29.503Z,11.90
2023-05-11T19:27:06.795Z,12.38
2023-05-11T19:29:36.805Z,13.63
2023-05-11T19:32:05.865Z,13.05
2023-05-11T19:34:40.360Z,14.02
2023-05-11T19:37:09.866Z,16.60
2023-05-11T19:39:39.360Z,15.95
2023-05-11T19:42:08.877Z,18.60
2023-05-11T19:44:44.074Z,17.95
2023-05-11T19:47:13.857Z,11.88
2023-05-11T19:49:43.781Z,12.07
2023-05-11T19:52:12.721Z,8.30
2023-05-11T19:54:42.194Z,7.05
2023-05-11T19:57:11.405Z,7.53
2023-05-11T19:59:40.850Z,7.03
2023-05-11T20:02:10.504Z,5.78
2023-05-11T20:04:40.246Z,5.30
2023-05-11T20:07:08.600Z,5.50
2023-05-11T20:09:38.921Z,8.70
2023-05-11T20:12:11.739Z,6.72
2023-05-11T20:14:42.242Z,8.10
2023-05-11T20:17:11.790Z,9.80
2023-05-11T20:19:41.260Z,10.93
2023-05-11T20:22:09.882Z,12.23
2023-05-11T20:24:42.360Z,14.25
2023-05-11T20:27:13.631Z,12.45
2023-05-11T20:29:47.560Z,13.30
2023-05-11T20:32:16.923Z,15.00
2023-05-11T20:34:56.135Z,13.27
2023-05-11T20:37:27.530Z,16.35
2023-05-11T20:39:58.623Z,13.77
2023-05-11T20:42:31.227Z,14.38
2023-05-11T20:45:19.090Z,15.65
2023-05-11T20:47:55.155Z,17.10
2023-05-11T20:50:25.190Z,17.88
2023-05-11T20:52:56.272Z,17.13
2023-05-11T20:55:42.223Z,20.20
2023-05-11T20:58:23.363Z,15.77
2023-05-11T21:00:51.545Z,19.52
2023-05-11T21:03:19.077Z,15.68
2023-05-11T21:05:46.416Z,16.40
2023-05-11T21:08:15.077Z,15.63
2023-05-11T21:10:42.845Z,16.33
2023-05-11T21:13:10.048Z,18.85
2023-05-11T21:15:37.609Z,19.67
2023-05-11T21:18:05.072Z,16.58
2023-05-11T21:20:32.392Z,16.27
2023-05-11T21:23:00.308Z,19.83
2023-05-11T21:25:27.578Z,22.35
2023-05-11T21:27:54.795Z,17.65
2023-05-11T21:30:22.050Z,16.50
2023-05-11T21:32:52.323Z,17.85
2023-05-11T21:35:19.664Z,16.75
2023-05-11T21:37:49.667Z,20.17
2023-05-11T21:40:17.964Z,16.88
2023-05-11T21:42:45.528Z,17.47
2023-05-11T21:45:13.137Z,18.80
2023-05-11T21:47:40.505Z,17.63
2023-05-11T21:50:08.727Z,20.38
2023-05-11T21:52:37.034Z,18.33
2023-05-11T21:55:04.808Z,17.47
2023-05-11T21:57:32.253Z,20.88
2023-05-11T21:59:59.504Z,16.48
2023-05-11T22:02:26.817Z,16.15
2023-05-11T22:04:54.168Z,15.75
2023-05-11T22:07:21.501Z,14.23
2023-05-11T22:09:49.046Z,15.43
2023-05-11T22:12:16.379Z,16.10
2023-05-11T22:14:43.653Z,14.40
2023-05-11T22:17:11.078Z,13.85
2023-05-11T22:19:38.358Z,14.68
2023-05-11T22:22:05.700Z,16.00
2023-05-11T22:24:33.011Z,13.73
2023-05-11T22:27:01.258Z,12.25
2023-05-11T22:29:28.761Z,12.50
2023-05-11T22:31:56.066Z,10.50
2023-05-11T22:34:23.330Z,14.30
2023-05-11T22:36:50.532Z,9.50
2023-05-11T22:39:18.010Z,9.52
2023-05-11T22:41:45.256Z,10.18
2023-05-11T22:44:12.651Z,8.35
2023-05-11T22:46:39.973Z,10.07
2023-05-11T22:49:08.344Z,8.52
2023-05-11T22:51:35.595Z,10.00
2023-05-11T22:54:03.416Z,10.60
2023-05-11T22:56:31.449Z,9.65
2023-05-11T22:59:01.331Z,8.88
2023-05-11T23:01:28.980Z,8.13
2023-05-11T23:03:56.370Z,8.07
2023-05-11T23:06:23.620Z,8.90
2023-05-11T23:08:51.003Z,9.18
2023-05-11T23:11:18.463Z,9.45
2023-05-11T23:13:45.736Z,6.97
2023-05-11T23:16:13.056Z,8.60
2023-05-11T23:18:40.438Z,7.68
2023-05-11T23:21:08.363Z,8.20
2023-05-11T23:23:35.780Z,8.93
2023-05-11T23:26:03.067Z,7.18
2023-05-11T23:28:30.360Z,7.43
2023-05-11T23:30:57.580Z,8.63
2023-05-11T23:33:24.997Z,10.35
2023-05-11T23:35:52.575Z,8.93
2023-05-11T23:38:19.810Z,9.73
2023-05-11T23:40:47.045Z,7.97
2023-05-11T23:43:14.396Z,9.63
2023-05-11T23:45:41.863Z,9.68
2023-05-11T23:48:09.260Z,8.50
2023-05-11T23:50:36.508Z,9.75
2023-05-11T23:53:03.737Z,10.60
2023-05-11T23:55:30.988Z,11.25
2023-05-11T23:57:58.909Z,10.48
